sensor_id;sensor_type;location;lat;lon;timestamp;pressure;altitude;pressure_sealevel;temperature;humidity
48606;BME280;8482;54.396;18.590;2023-04-04T00:00:14;102759.34;;;3.39;47.54
48606;BME280;8482;54.396;18.590;2023-04-04T00:02:41;102745.34;;;3.38;48.33
48606;BME280;8482;54.396;18.590;2023-04-04T00:05:07;102753.97;;;3.47;48.78
48606;BME280;8482;54.396;18.590;2023-04-04T00:07:34;102757.44;;;3.49;49.29
48606;BME280;8482;54.396;18.590;2023-04-04T00:10:00;102754.84;;;3.47;49.13
48606;BME280;8482;54.396;18.590;2023-04-04T00:12:26;102761.03;;;3.43;48.85
48606;BME280;8482;54.396;18.590;2023-04-04T00:14:52;102748.00;;;3.37;48.06
48606;BME280;8482;54.396;18.590;2023-04-04T00:17:18;102755.84;;;3.38;48.04
48606;BME280;8482;54.396;18.590;2023-04-04T00:19:44;102752.44;;;3.33;47.16
48606;BME280;8482;54.396;18.590;2023-04-04T00:22:11;102749.84;;;3.32;47.36
48606;BME280;8482;54.396;18.590;2023-04-04T00:24:38;102748.00;;;3.37;47.18
48606;BME280;8482;54.396;18.590;2023-04-04T00:27:04;102750.69;;;3.34;46.45
48606;BME280;8482;54.396;18.590;2023-04-04T00:29:30;102745.47;;;3.32;46.32
48606;BME280;8482;54.396;18.590;2023-04-04T00:31:56;102743.78;;;3.30;45.82
48606;BME280;8482;54.396;18.590;2023-04-04T00:34:22;102734.19;;;3.27;45.42
48606;BME280;8482;54.396;18.590;2023-04-04T00:36:48;102742.97;;;3.25;45.63
48606;BME280;8482;54.396;18.590;2023-04-04T00:39:14;102736.03;;;3.20;45.66
48606;BME280;8482;54.396;18.590;2023-04-04T00:41:39;102730.88;;;3.16;46.11
48606;BME280;8482;54.396;18.590;2023-04-04T00:44:06;102745.63;;;3.23;46.61
48606;BME280;8482;54.396;18.590;2023-04-04T00:46:32;102736.03;;;3.22;46.97
48606;BME280;8482;54.396;18.590;2023-04-04T00:48:58;102722.88;;;3.24;47.78
48606;BME280;8482;54.396;18.590;2023-04-04T00:51:24;102729.00;;;3.22;47.61
48606;BME280;8482;54.396;18.590;2023-04-04T00:53:51;102716.81;;;3.18;46.81
48606;BME280;8482;54.396;18.590;2023-04-04T00:56:18;102706.41;;;3.15;47.07
48606;BME280;8482;54.396;18.590;2023-04-04T00:58:46;102719.44;;;3.20;45.81
48606;BME280;8482;54.396;18.590;2023-04-04T01:01:12;102719.41;;;3.23;45.79
48606;BME280;8482;54.396;18.590;2023-04-04T01:03:38;102708.97;;;3.18;45.64
48606;BME280;8482;54.396;18.590;2023-04-04T01:06:06;102711.63;;;3.17;46.42
48606;BME280;8482;54.396;18.590;2023-04-04T01:08:36;102709.03;;;3.14;46.98
48606;BME280;8482;54.396;18.590;2023-04-04T01:11:05;102711.75;;;3.09;46.59
48606;BME280;8482;54.396;18.590;2023-04-04T01:13:33;102694.38;;;3.02;47.07
48606;BME280;8482;54.396;18.590;2023-04-04T01:15:59;102701.31;;;3.04;46.84
48606;BME280;8482;54.396;18.590;2023-04-04T01:18:27;102694.31;;;3.06;46.46
48606;BME280;8482;54.396;18.590;2023-04-04T01:21:08;102685.72;;;2.97;46.06
48606;BME280;8482;54.396;18.590;2023-04-04T01:24:03;102688.25;;;3.01;45.55
48606;BME280;8482;54.396;18.590;2023-04-04T01:26:30;102685.75;;;2.94;45.07
48606;BME280;8482;54.396;18.590;2023-04-04T01:28:57;102685.75;;;2.94;45.43
48606;BME280;8482;54.396;18.590;2023-04-04T01:31:39;102688.41;;;2.92;45.27
48606;BME280;8482;54.396;18.590;2023-04-04T01:37:35;102681.47;;;2.88;45.26
48606;BME280;8482;54.396;18.590;2023-04-04T01:40:30;102684.09;;;2.88;45.50
48606;BME280;8482;54.396;18.590;2023-04-04T01:43:00;102671.94;;;2.84;45.66
48606;BME280;8482;54.396;18.590;2023-04-04T01:45:28;102682.28;;;2.91;45.93
48606;BME280;8482;54.396;18.590;2023-04-04T01:47:54;102662.22;;;2.90;46.21
48606;BME280;8482;54.396;18.590;2023-04-04T01:50:22;102669.06;;;2.99;46.67
48606;BME280;8482;54.396;18.590;2023-04-04T01:52:47;102669.91;;;3.03;46.75
48606;BME280;8482;54.396;18.590;2023-04-04T01:55:14;102674.25;;;3.04;46.63
48606;BME280;8482;54.396;18.590;2023-04-04T01:57:40;102667.28;;;3.03;47.13
48606;BME280;8482;54.396;18.590;2023-04-04T02:00:07;102670.66;;;3.08;46.49
48606;BME280;8482;54.396;18.590;2023-04-04T02:02:33;102656.78;;;3.01;46.14
48606;BME280;8482;54.396;18.590;2023-04-04T02:04:59;102648.91;;;3.03;46.37
48606;BME280;8482;54.396;18.590;2023-04-04T02:07:25;102660.19;;;3.08;45.95
48606;BME280;8482;54.396;18.590;2023-04-04T02:09:51;102657.56;;;3.08;46.14
48606;BME280;8482;54.396;18.590;2023-04-04T02:12:17;102649.72;;;3.06;46.26
48606;BME280;8482;54.396;18.590;2023-04-04T02:14:43;102654.03;;;3.11;46.36
48606;BME280;8482;54.396;18.590;2023-04-04T02:17:09;102650.50;;;3.12;46.10
48606;BME280;8482;54.396;18.590;2023-04-04T02:19:36;102640.97;;;3.08;46.28
48606;BME280;8482;54.396;18.590;2023-04-04T02:22:01;102647.91;;;3.10;46.28
48606;BME280;8482;54.396;18.590;2023-04-04T02:24:27;102649.69;;;3.10;46.06
48606;BME280;8482;54.396;18.590;2023-04-04T02:26:53;102630.63;;;3.00;46.71
48606;BME280;8482;54.396;18.590;2023-04-04T02:29:19;102638.34;;;3.06;46.30
48606;BME280;8482;54.396;18.590;2023-04-04T02:31:45;102632.25;;;3.05;46.08
48606;BME280;8482;54.396;18.590;2023-04-04T02:34:11;102640.19;;;3.02;46.66
48606;BME280;8482;54.396;18.590;2023-04-04T02:36:37;102642.75;;;3.05;46.59
48606;BME280;8482;54.396;18.590;2023-04-04T02:39:03;102642.72;;;3.09;46.61
48606;BME280;8482;54.396;18.590;2023-04-04T02:41:30;102629.59;;;3.09;45.43
48606;BME280;8482;54.396;18.590;2023-04-04T02:43:56;102630.50;;;3.08;45.20
48606;BME280;8482;54.396;18.590;2023-04-04T02:46:22;102609.66;;;2.98;44.60
48606;BME280;8482;54.396;18.590;2023-04-04T02:48:48;102614.72;;;3.09;45.19
48606;BME280;8482;54.396;18.590;2023-04-04T02:51:17;102612.97;;;3.10;44.98
48606;BME280;8482;54.396;18.590;2023-04-04T02:53:42;102618.97;;;3.15;45.34
48606;BME280;8482;54.396;18.590;2023-04-04T02:56:08;102625.97;;;3.16;45.13
48606;BME280;8482;54.396;18.590;2023-04-04T02:58:34;102627.75;;;3.14;45.18
48606;BME280;8482;54.396;18.590;2023-04-04T03:01:00;102619.06;;;3.10;45.94
48606;BME280;8482;54.396;18.590;2023-04-04T03:03:26;102623.47;;;3.08;45.71
48606;BME280;8482;54.396;18.590;2023-04-04T03:05:52;102629.66;;;3.05;45.55
48606;BME280;8482;54.396;18.590;2023-04-04T03:08:18;102628.78;;;3.03;46.64
48606;BME280;8482;54.396;18.590;2023-04-04T03:10:44;102617.50;;;3.00;46.81
48606;BME280;8482;54.396;18.590;2023-04-04T03:13:13;102623.72;;;2.92;46.81
48606;BME280;8482;54.396;18.590;2023-04-04T03:15:39;102618.53;;;2.91;46.73
48606;BME280;8482;54.396;18.590;2023-04-04T03:18:08;102611.66;;;2.82;47.15
48606;BME280;8482;54.396;18.590;2023-04-04T03:20:34;102614.22;;;2.87;46.93
48606;BME280;8482;54.396;18.590;2023-04-04T03:23:00;102612.50;;;2.84;47.25
48606;BME280;8482;54.396;18.590;2023-04-04T03:25:25;102619.53;;;2.84;46.52
48606;BME280;8482;54.396;18.590;2023-04-04T03:27:51;102613.44;;;2.82;46.64
48606;BME280;8482;54.396;18.590;2023-04-04T03:30:18;102607.44;;;2.75;47.02
48606;BME280;8482;54.396;18.590;2023-04-04T03:32:43;102603.97;;;2.73;47.00
48606;BME280;8482;54.396;18.590;2023-04-04T03:35:09;102610.09;;;2.72;47.66
48606;BME280;8482;54.396;18.590;2023-04-04T03:37:36;102616.25;;;2.69;47.48
48606;BME280;8482;54.396;18.590;2023-04-04T03:40:02;102610.13;;;2.69;47.32
48606;BME280;8482;54.396;18.590;2023-04-04T03:42:33;102603.16;;;2.68;47.83
48606;BME280;8482;54.396;18.590;2023-04-04T03:44:59;102603.19;;;2.66;47.89
48606;BME280;8482;54.396;18.590;2023-04-04T03:47:25;102606.59;;;2.71;47.83
48606;BME280;8482;54.396;18.590;2023-04-04T03:49:51;102597.84;;;2.72;47.41
48606;BME280;8482;54.396;18.590;2023-04-04T03:52:17;102600.47;;;2.72;47.25
48606;BME280;8482;54.396;18.590;2023-04-04T03:54:43;102595.28;;;2.69;47.67
48606;BME280;8482;54.396;18.590;2023-04-04T03:57:10;102596.19;;;2.68;47.24
48606;BME280;8482;54.396;18.590;2023-04-04T03:59:35;102592.69;;;2.68;47.46
48606;BME280;8482;54.396;18.590;2023-04-04T04:02:02;102599.69;;;2.67;47.70
48606;BME280;8482;54.396;18.590;2023-04-04T04:04:28;102595.25;;;2.71;47.55
48606;BME280;8482;54.396;18.590;2023-04-04T04:06:53;102583.03;;;2.70;47.18
48606;BME280;8482;54.396;18.590;2023-04-04T04:09:19;102592.69;;;2.69;47.82
48606;BME280;8482;54.396;18.590;2023-04-04T04:11:45;102585.69;;;2.68;47.84
48606;BME280;8482;54.396;18.590;2023-04-04T04:14:11;102589.16;;;2.70;47.83
48606;BME280;8482;54.396;18.590;2023-04-04T04:16:40;102580.41;;;2.70;47.19
48606;BME280;8482;54.396;18.590;2023-04-04T04:19:06;102585.63;;;2.71;47.52
48606;BME280;8482;54.396;18.590;2023-04-04T04:21:31;102590.88;;;2.71;47.56
48606;BME280;8482;54.396;18.590;2023-04-04T04:23:57;102580.41;;;2.70;46.84
48606;BME280;8482;54.396;18.590;2023-04-04T04:26:23;102594.41;;;2.69;46.49
48606;BME280;8482;54.396;18.590;2023-04-04T04:28:49;102584.84;;;2.66;46.07
48606;BME280;8482;54.396;18.590;2023-04-04T04:31:15;102586.63;;;2.64;44.88
48606;BME280;8482;54.396;18.590;2023-04-04T04:33:41;102591.84;;;2.66;45.12
48606;BME280;8482;54.396;18.590;2023-04-04T04:36:07;102591.78;;;2.69;44.65
48606;BME280;8482;54.396;18.590;2023-04-04T04:38:33;102586.50;;;2.72;44.57
48606;BME280;8482;54.396;18.590;2023-04-04T04:40:59;102589.13;;;2.72;44.67
48606;BME280;8482;54.396;18.590;2023-04-04T04:43:26;102596.91;;;2.76;44.43
48606;BME280;8482;54.396;18.590;2023-04-04T04:45:52;102580.25;;;2.79;44.96
48606;BME280;8482;54.396;18.590;2023-04-04T04:48:18;102578.59;;;2.73;45.18
48606;BME280;8482;54.396;18.590;2023-04-04T04:50:45;102584.63;;;2.80;45.71
48606;BME280;8482;54.396;18.590;2023-04-04T04:53:12;102587.16;;;2.85;46.32
48606;BME280;8482;54.396;18.590;2023-04-04T04:55:38;102580.13;;;2.87;46.88
48606;BME280;8482;54.396;18.590;2023-04-04T04:58:04;102590.63;;;2.88;46.75
48606;BME280;8482;54.396;18.590;2023-04-04T05:00:31;102594.13;;;2.87;47.29
48606;BME280;8482;54.396;18.590;2023-04-04T05:02:57;102587.16;;;2.85;47.50
48606;BME280;8482;54.396;18.590;2023-04-04T05:05:27;102602.06;;;2.83;48.07
48606;BME280;8482;54.396;18.590;2023-04-04T05:07:53;102605.56;;;2.82;48.75
48606;BME280;8482;54.396;18.590;2023-04-04T05:10:18;102589.03;;;2.76;49.60
48606;BME280;8482;54.396;18.590;2023-04-04T05:12:45;102596.00;;;2.79;49.69
48606;BME280;8482;54.396;18.590;2023-04-04T05:15:11;102599.50;;;2.78;49.98
48606;BME280;8482;54.396;18.590;2023-04-04T05:17:40;102590.81;;;2.74;50.42
48606;BME280;8482;54.396;18.590;2023-04-04T05:20:07;102595.16;;;2.77;50.42
48606;BME280;8482;54.396;18.590;2023-04-04T05:22:33;102593.44;;;2.74;50.59
48606;BME280;8482;54.396;18.590;2023-04-04T05:24:59;102587.34;;;2.72;50.40
48606;BME280;8482;54.396;18.590;2023-04-04T05:27:24;102591.72;;;2.75;50.10
48606;BME280;8482;54.396;18.590;2023-04-04T05:29:50;102590.00;;;2.71;50.84
48606;BME280;8482;54.396;18.590;2023-04-04T05:32:17;102592.56;;;2.77;50.24
48606;BME280;8482;54.396;18.590;2023-04-04T05:34:42;102594.31;;;2.75;50.92
48606;BME280;8482;54.396;18.590;2023-04-04T05:37:08;102595.16;;;2.77;50.74
48606;BME280;8482;54.396;18.590;2023-04-04T05:39:34;102596.00;;;2.79;51.19
48606;BME280;8482;54.396;18.590;2023-04-04T05:42:01;102588.13;;;2.81;50.66
48606;BME280;8482;54.396;18.590;2023-04-04T05:44:26;102594.13;;;2.86;50.66
48606;BME280;8482;54.396;18.590;2023-04-04T05:46:52;102602.84;;;2.88;50.98
48606;BME280;8482;54.396;18.590;2023-04-04T05:49:18;102585.44;;;2.84;50.59
48606;BME280;8482;54.396;18.590;2023-04-04T05:51:44;102596.69;;;2.90;50.74
48606;BME280;8482;54.396;18.590;2023-04-04T05:54:10;102589.78;;;2.86;50.52
48606;BME280;8482;54.396;18.590;2023-04-04T05:56:36;102599.25;;;2.94;50.84
48606;BME280;8482;54.396;18.590;2023-04-04T05:59:02;102606.13;;;3.01;50.37
48606;BME280;8482;54.396;18.590;2023-04-04T06:01:27;102595.59;;;3.02;50.83
48606;BME280;8482;54.396;18.590;2023-04-04T06:03:54;102592.91;;;3.07;49.68
48606;BME280;8482;54.396;18.590;2023-04-04T06:06:21;102598.97;;;3.11;49.15
48606;BME280;8482;54.396;18.590;2023-04-04T06:08:47;102589.25;;;3.16;48.33
48606;BME280;8482;54.396;18.590;2023-04-04T06:11:12;102587.38;;;3.22;47.39
48606;BME280;8482;54.396;18.590;2023-04-04T06:13:38;102575.19;;;3.20;46.89
48606;BME280;8482;54.396;18.590;2023-04-04T06:16:05;102572.28;;;3.34;46.86
48606;BME280;8482;54.396;18.590;2023-04-04T06:18:31;102566.16;;;3.36;46.47
48606;BME280;8482;54.396;18.590;2023-04-04T06:20:56;102568.53;;;3.47;46.59
48606;BME280;8482;54.396;18.590;2023-04-04T06:23:22;102570.97;;;3.58;46.69
48606;BME280;8482;54.396;18.590;2023-04-04T06:25:48;102570.88;;;3.63;46.40
48606;BME280;8482;54.396;18.590;2023-04-04T06:28:14;102578.69;;;3.64;46.03
48606;BME280;8482;54.396;18.590;2023-04-04T06:30:43;102579.56;;;3.65;45.80
48606;BME280;8482;54.396;18.590;2023-04-04T06:33:09;102576.06;;;3.66;45.97
48606;BME280;8482;54.396;18.590;2023-04-04T06:35:36;102582.19;;;3.65;46.38
48606;BME280;8482;54.396;18.590;2023-04-04T06:38:01;102570.13;;;3.56;46.52
48606;BME280;8482;54.396;18.590;2023-04-04T06:40:29;102566.66;;;3.56;46.74
48606;BME280;8482;54.396;18.590;2023-04-04T06:42:55;102567.63;;;3.50;47.47
48606;BME280;8482;54.396;18.590;2023-04-04T06:45:23;102576.25;;;3.55;47.97
48606;BME280;8482;54.396;18.590;2023-04-04T06:47:50;102577.09;;;3.57;48.04
48606;BME280;8482;54.396;18.590;2023-04-04T06:50:17;102578.94;;;3.52;48.93
48606;BME280;8482;54.396;18.590;2023-04-04T06:52:44;102578.97;;;3.50;49.32
48606;BME280;8482;54.396;18.590;2023-04-04T06:55:10;102566.00;;;3.43;49.69
48606;BME280;8482;54.396;18.590;2023-04-04T06:57:36;102559.03;;;3.43;49.59
48606;BME280;8482;54.396;18.590;2023-04-04T07:00:03;102562.56;;;3.41;50.34
48606;BME280;8482;54.396;18.590;2023-04-04T07:02:29;102568.59;;;3.44;49.54
48606;BME280;8482;54.396;18.590;2023-04-04T07:04:56;102551.06;;;3.46;49.99
48606;BME280;8482;54.396;18.590;2023-04-04T07:07:21;102561.47;;;3.51;50.27
48606;BME280;8482;54.396;18.590;2023-04-04T07:09:47;102559.69;;;3.53;50.54
48606;BME280;8482;54.396;18.590;2023-04-04T07:12:13;102562.25;;;3.56;50.69
48606;BME280;8482;54.396;18.590;2023-04-04T07:14:39;102571.81;;;3.60;51.09
48606;BME280;8482;54.396;18.590;2023-04-04T07:17:05;102564.81;;;3.59;51.25
48606;BME280;8482;54.396;18.590;2023-04-04T07:19:31;102558.72;;;3.57;50.58
48606;BME280;8482;54.396;18.590;2023-04-04T07:21:57;102547.41;;;3.55;51.45
48606;BME280;8482;54.396;18.590;2023-04-04T07:24:23;102541.47;;;3.47;51.26
48606;BME280;8482;54.396;18.590;2023-04-04T07:26:49;102554.38;;;3.56;52.07
48606;BME280;8482;54.396;18.590;2023-04-04T07:29:15;102547.38;;;3.57;51.96
48606;BME280;8482;54.396;18.590;2023-04-04T07:31:41;102552.44;;;3.64;52.11
48606;BME280;8482;54.396;18.590;2023-04-04T07:34:06;102547.09;;;3.71;52.42
48606;BME280;8482;54.396;18.590;2023-04-04T07:36:32;102542.56;;;3.77;52.37
48606;BME280;8482;54.396;18.590;2023-04-04T07:38:58;102545.97;;;3.82;52.49
48606;BME280;8482;54.396;18.590;2023-04-04T07:41:24;102542.34;;;3.87;51.99
48606;BME280;8482;54.396;18.590;2023-04-04T07:43:53;102548.50;;;3.87;52.09
48606;BME280;8482;54.396;18.590;2023-04-04T07:46:18;102541.47;;;3.88;52.04
48606;BME280;8482;54.396;18.590;2023-04-04T07:48:44;102543.25;;;3.86;52.18
48606;BME280;8482;54.396;18.590;2023-04-04T07:51:10;102544.88;;;3.91;51.72
48606;BME280;8482;54.396;18.590;2023-04-04T07:53:36;102536.94;;;3.94;51.50
48606;BME280;8482;54.396;18.590;2023-04-04T07:56:02;102542.13;;;3.97;51.69
48606;BME280;8482;54.396;18.590;2023-04-04T07:58:34;102532.59;;;3.93;50.70
48606;BME280;8482;54.396;18.590;2023-04-04T08:01:02;102536.03;;;3.95;51.11
48606;BME280;8482;54.396;18.590;2023-04-04T08:03:28;102535.03;;;4.01;51.11
48606;BME280;8482;54.396;18.590;2023-04-04T08:05:54;102524.44;;;4.06;50.46
48606;BME280;8482;54.396;18.590;2023-04-04T08:08:20;102532.13;;;4.15;50.71
48606;BME280;8482;54.396;18.590;2023-04-04T08:10:46;102519.78;;;4.19;50.48
48606;BME280;8482;54.396;18.590;2023-04-04T08:13:13;102515.97;;;4.30;49.94
48606;BME280;8482;54.396;18.590;2023-04-04T08:15:40;102530.41;;;4.50;49.78
48606;BME280;8482;54.396;18.590;2023-04-04T08:18:06;102518.72;;;4.62;49.79
48606;BME280;8482;54.396;18.590;2023-04-04T08:20:32;102514.00;;;4.75;48.85
48606;BME280;8482;54.396;18.590;2023-04-04T08:22:58;102499.69;;;4.85;48.21
48606;BME280;8482;54.396;18.590;2023-04-04T08:25:23;102502.00;;;4.98;47.80
48606;BME280;8482;54.396;18.590;2023-04-04T08:27:49;102508.78;;;5.06;47.66
48606;BME280;8482;54.396;18.590;2023-04-04T08:30:15;102501.56;;;5.15;47.62
48606;BME280;8482;54.396;18.590;2023-04-04T08:32:42;102500.47;;;5.22;46.99
48606;BME280;8482;54.396;18.590;2023-04-04T08:35:10;102486.25;;;5.28;47.14
48606;BME280;8482;54.396;18.590;2023-04-04T08:37:37;102493.81;;;5.40;46.93
48606;BME280;8482;54.396;18.590;2023-04-04T08:40:05;102498.78;;;5.49;46.35
48606;BME280;8482;54.396;18.590;2023-04-04T08:42:35;102482.91;;;5.52;46.26
48606;BME280;8482;54.396;18.590;2023-04-04T08:45:06;102484.28;;;5.66;46.17
48606;BME280;8482;54.396;18.590;2023-04-04T08:47:36;102506.84;;;5.75;45.76
48606;BME280;8482;54.396;18.590;2023-04-04T08:50:07;102502.31;;;5.80;44.89
48606;BME280;8482;54.396;18.590;2023-04-04T08:52:34;102482.28;;;5.74;43.97
48606;BME280;8482;54.396;18.590;2023-04-04T08:55:04;102490.63;;;5.89;43.91
48606;BME280;8482;54.396;18.590;2023-04-04T08:57:30;102499.06;;;5.98;43.65
48606;BME280;8482;54.396;18.590;2023-04-04T08:59:58;102503.97;;;6.12;43.75
48606;BME280;8482;54.396;18.590;2023-04-04T09:05:15;102483.81;;;6.37;43.17
48606;BME280;8482;54.396;18.590;2023-04-04T09:07:43;102488.75;;;6.48;42.43
48606;BME280;8482;54.396;18.590;2023-04-04T09:10:10;102491.13;;;6.55;42.44
48606;BME280;8482;54.396;18.590;2023-04-04T09:12:38;102484.03;;;6.57;42.57
48606;BME280;8482;54.396;18.590;2023-04-04T09:15:07;102479.44;;;6.63;42.15
48606;BME280;8482;54.396;18.590;2023-04-04T09:17:32;102483.81;;;6.64;41.68
48606;BME280;8482;54.396;18.590;2023-04-04T09:20:02;102475.94;;;6.62;41.01
48606;BME280;8482;54.396;18.590;2023-04-04T09:22:32;102480.31;;;6.63;41.01
48606;BME280;8482;54.396;18.590;2023-04-04T09:24:57;102480.31;;;6.63;41.27
48606;BME280;8482;54.396;18.590;2023-04-04T09:27:23;102488.06;;;6.68;41.80
48606;BME280;8482;54.396;18.590;2023-04-04T09:29:49;102480.09;;;6.69;42.51
48606;BME280;8482;54.396;18.590;2023-04-04T09:32:15;102471.16;;;6.73;42.63
48606;BME280;8482;54.396;18.590;2023-04-04T09:34:43;102473.31;;;6.87;42.11
48606;BME280;8482;54.396;18.590;2023-04-04T09:37:10;102476.81;;;6.88;41.99
48606;BME280;8482;54.396;18.590;2023-04-04T09:39:40;102480.84;;;6.98;41.88
48606;BME280;8482;54.396;18.590;2023-04-04T09:42:07;102486.75;;;7.05;42.23
48606;BME280;8482;54.396;18.590;2023-04-04T09:44:35;102476.19;;;7.05;42.12
48606;BME280;8482;54.396;18.590;2023-04-04T09:47:23;102477.88;;;7.08;41.11
48606;BME280;8482;54.396;18.590;2023-04-04T09:49:50;102471.84;;;7.04;40.90
48606;BME280;8482;54.396;18.590;2023-04-04T09:52:20;102471.00;;;7.03;41.13
48606;BME280;8482;54.396;18.590;2023-04-04T09:54:59;102477.81;;;7.09;41.22
48606;BME280;8482;54.396;18.590;2023-04-04T09:57:29;102466.34;;;7.10;40.79
48606;BME280;8482;54.396;18.590;2023-04-04T10:00:02;102465.16;;;7.19;40.76
48606;BME280;8482;54.396;18.590;2023-04-04T10:02:31;102467.66;;;7.22;40.44
48606;BME280;8482;54.396;18.590;2023-04-04T10:04:58;102464.97;;;7.24;40.50
48606;BME280;8482;54.396;18.590;2023-04-04T10:07:30;102468.28;;;7.29;40.90
48606;BME280;8482;54.396;18.590;2023-04-04T10:10:01;102462.72;;;7.36;39.78
48606;BME280;8482;54.396;18.590;2023-04-04T10:12:29;102462.50;;;7.43;40.13
48606;BME280;8482;54.396;18.590;2023-04-04T10:14:59;102472.06;;;7.45;40.06
48606;BME280;8482;54.396;18.590;2023-04-04T10:17:39;102461.34;;;7.50;39.86
48606;BME280;8482;54.396;18.590;2023-04-04T10:20:08;102469.06;;;7.55;40.36
48606;BME280;8482;54.396;18.590;2023-04-04T10:22:36;102444.53;;;7.53;40.01
48606;BME280;8482;54.396;18.590;2023-04-04T10:25:04;102458.19;;;7.64;39.97
48606;BME280;8482;54.396;18.590;2023-04-04T10:27:31;102454.31;;;7.73;40.09
48606;BME280;8482;54.396;18.590;2023-04-04T10:29:58;102455.03;;;7.76;39.62
48606;BME280;8482;54.396;18.590;2023-04-04T10:32:41;102462.78;;;7.81;39.38
48606;BME280;8482;54.396;18.590;2023-04-04T10:35:09;102465.53;;;7.78;39.72
48606;BME280;8482;54.396;18.590;2023-04-04T10:37:43;102469.91;;;7.79;39.23
48606;BME280;8482;54.396;18.590;2023-04-04T10:40:15;102457.72;;;7.75;39.16
48606;BME280;8482;54.396;18.590;2023-04-04T10:42:45;102462.91;;;7.78;38.57
48606;BME280;8482;54.396;18.590;2023-04-04T10:45:14;102465.63;;;7.76;38.51
48606;BME280;8482;54.396;18.590;2023-04-04T10:47:41;102449.94;;;7.72;38.15
48606;BME280;8482;54.396;18.590;2023-04-04T10:50:08;102448.03;;;7.75;38.37
48606;BME280;8482;54.396;18.590;2023-04-04T10:52:43;102458.22;;;7.85;38.27
48606;BME280;8482;54.396;18.590;2023-04-04T10:55:12;102448.88;;;7.98;38.15
48606;BME280;8482;54.396;18.590;2023-04-04T10:57:44;102458.03;;;8.11;38.26
48606;BME280;8482;54.396;18.590;2023-04-04T11:00:16;102454.84;;;8.25;38.26
48606;BME280;8482;54.396;18.590;2023-04-04T11:05:37;102438.09;;;8.25;38.17
48606;BME280;8482;54.396;18.590;2023-04-04T11:08:10;102455.25;;;8.37;37.84
48606;BME280;8482;54.396;18.590;2023-04-04T11:10:43;102441.91;;;8.40;37.54
48606;BME280;8482;54.396;18.590;2023-04-04T11:16:12;102431.13;;;8.44;37.22
48606;BME280;8482;54.396;18.590;2023-04-04T11:21:18;102437.25;;;8.45;37.68
48606;BME280;8482;54.396;18.590;2023-04-04T11:29:05;102428.22;;;8.71;37.50
48606;BME280;8482;54.396;18.590;2023-04-04T11:31:47;102432.97;;;8.84;37.15
48606;BME280;8482;54.396;18.590;2023-04-04T11:34:29;102415.81;;;8.93;36.90
48606;BME280;8482;54.396;18.590;2023-04-04T11:36:55;102423.97;;;9.07;36.84
48606;BME280;8482;54.396;18.590;2023-04-04T11:39:30;102408.47;;;8.99;36.35
48606;BME280;8482;54.396;18.590;2023-04-04T11:42:10;102408.88;;;9.09;36.82
48606;BME280;8482;54.396;18.590;2023-04-04T11:47:22;102407.94;;;9.29;36.13
48606;BME280;8482;54.396;18.590;2023-04-04T11:49:52;102409.41;;;9.37;35.81
48606;BME280;8482;54.396;18.590;2023-04-04T11:52:18;102404.66;;;9.43;35.87
48606;BME280;8482;54.396;18.590;2023-04-04T11:54:46;102410.53;;;9.50;35.61
48606;BME280;8482;54.396;18.590;2023-04-04T11:57:17;102406.41;;;9.62;35.40
48606;BME280;8482;54.396;18.590;2023-04-04T11:59:49;102397.81;;;9.76;35.07
48606;BME280;8482;54.396;18.590;2023-04-04T12:02:23;102398.97;;;9.88;34.98
48606;BME280;8482;54.396;18.590;2023-04-04T12:04:52;102396.31;;;9.88;35.09
48606;BME280;8482;54.396;18.590;2023-04-04T12:07:18;102391.94;;;9.87;34.96
48606;BME280;8482;54.396;18.590;2023-04-04T12:09:45;102394.41;;;9.91;34.84
48606;BME280;8482;54.396;18.590;2023-04-04T12:12:14;102393.00;;;10.02;34.80
48606;BME280;8482;54.396;18.590;2023-04-04T12:14:41;102385.59;;;10.08;34.52
48606;BME280;8482;54.396;18.590;2023-04-04T12:17:08;102393.22;;;10.15;34.28
48606;BME280;8482;54.396;18.590;2023-04-04T12:19:38;102389.41;;;10.20;34.03
48606;BME280;8482;54.396;18.590;2023-04-04T12:22:06;102387.63;;;10.21;33.61
48606;BME280;8482;54.396;18.590;2023-04-04T12:24:35;102379.66;;;10.21;32.45
48606;BME280;8482;54.396;18.590;2023-04-04T12:27:03;102381.13;;;10.09;32.36
48606;BME280;8482;54.396;18.590;2023-04-04T12:29:31;102378.72;;;10.04;32.73
48606;BME280;8482;54.396;18.590;2023-04-04T12:32:03;102375.28;;;10.20;32.89
48606;BME280;8482;54.396;18.590;2023-04-04T12:34:34;102385.19;;;10.34;31.91
48606;BME280;8482;54.396;18.590;2023-04-04T12:37:09;102376.53;;;10.48;32.11
48606;BME280;8482;54.396;18.590;2023-04-04T12:39:46;102374.31;;;10.73;32.13
48606;BME280;8482;54.396;18.590;2023-04-04T12:42:23;102360.69;;;10.80;32.17
48606;BME280;8482;54.396;18.590;2023-04-04T12:44:51;102378.53;;;11.10;32.58
48606;BME280;8482;54.396;18.590;2023-04-04T12:47:18;102383.00;;;11.25;32.10
48606;BME280;8482;54.396;18.590;2023-04-04T12:49:51;102375.69;;;11.45;31.66
48606;BME280;8482;54.396;18.590;2023-04-04T12:52:27;102377.66;;;11.73;31.75
48606;BME280;8482;54.396;18.590;2023-04-04T12:55:04;102377.34;;;12.10;30.92
48606;BME280;8482;54.396;18.590;2023-04-04T12:57:32;102354.75;;;12.46;29.99
48606;BME280;8482;54.396;18.590;2023-04-04T13:00:01;102372.72;;;12.86;29.94
48606;BME280;8482;54.396;18.590;2023-04-04T13:02:29;102376.16;;;13.30;29.61
48606;BME280;8482;54.396;18.590;2023-04-04T13:04:57;102369.56;;;13.77;29.12
48606;BME280;8482;54.396;18.590;2023-04-04T13:07:35;102354.78;;;14.51;29.09
48606;BME280;8482;54.396;18.590;2023-04-04T13:10:09;102358.94;;;16.49;27.56
48606;BME280;8482;54.396;18.590;2023-04-04T13:12:59;102353.53;;;19.97;23.70
48606;BME280;8482;54.396;18.590;2023-04-04T13:15:47;102353.72;;;23.11;20.50
48606;BME280;8482;54.396;18.590;2023-04-04T13:18:22;102348.34;;;25.99;17.69
48606;BME280;8482;54.396;18.590;2023-04-04T13:20:51;102340.56;;;28.37;15.02
48606;BME280;8482;54.396;18.590;2023-04-04T13:23:18;102343.13;;;30.41;13.51
48606;BME280;8482;54.396;18.590;2023-04-04T13:25:44;102339.91;;;32.05;11.91